Time;durP1;ratioP1;P1;durP2;ratioP2;P2;SDS_P1;SDS_P2;PMS_P1;PMS_P2;Temp;Humidity;BMP_temperature;BMP_pressure;BME280_temperature;BME280_humidity;BME280_pressure;Samples;Min_cycle;Max_cycle;Signal;HPM_P1;HPM_P2
2022/07/21 00:01:26;;;;;;;2.33;1.13;;;;;;;;;;12547029;28;20036;-80
2022/07/21 00:07:28;;;;;;;1.48;1.38;;;;;;;;;;12539794;28;20055;-80
2022/07/21 00:13:30;;;;;;;2.38;1.50;;;;;;;;;;12542813;28;20036;-80
2022/07/21 00:19:32;;;;;;;1.60;1.50;;;;;;;;;;12544082;28;20059;-81
2022/07/21 00:25:33;;;;;;;1.73;1.58;;;;;;;;;;12540488;28;20056;-80
2022/07/21 00:31:35;;;;;;;3.08;1.52;;;;;;;;;;12541255;28;20032;-80
2022/07/21 00:37:37;;;;;;;1.60;1.50;;;;;;;;;;12542072;28;20388;-77
2022/07/21 00:43:39;;;;;;;2.67;1.23;;;;;;;;;;12541921;28;20057;-77
2022/07/21 00:49:42;;;;;;;3.15;1.60;;;;;;;;;;12539424;28;20041;-80
2022/07/21 00:55:46;;;;;;;1.67;1.42;;;;;;;;;;12539374;28;20261;-76
2022/07/21 01:01:48;;;;;;;2.80;2.10;;;;;;;;;;12539031;28;20059;-81
2022/07/21 01:07:51;;;;;;;1.77;1.60;;;;;;;;;;12542284;28;20054;-80
2022/07/21 01:13:53;;;;;;;2.25;1.95;;;;;;;;;;12543267;28;20033;-77
2022/07/21 01:19:55;;;;;;;2.47;2.03;;;;;;;;;;12545934;28;20037;-77
2022/07/21 01:25:56;;;;;;;2.25;1.80;;;;;;;;;;12548400;28;20041;-81
2022/07/21 01:31:58;;;;;;;1.85;1.65;;;;;;;;;;12550862;28;20047;-80
2022/07/21 01:38:00;;;;;;;2.15;1.70;;;;;;;;;;12547457;28;20396;-80
2022/07/21 01:44:04;;;;;;;1.90;1.80;;;;;;;;;;12555793;28;20053;-80
2022/07/21 01:50:07;;;;;;;2.25;1.80;;;;;;;;;;12549117;28;20275;-80
2022/07/21 01:56:09;;;;;;;2.20;2.00;;;;;;;;;;12546018;28;20033;-77
2022/07/21 02:02:10;;;;;;;2.95;2.20;;;;;;;;;;12547211;28;20037;-80
2022/07/21 02:08:12;;;;;;;3.33;2.38;;;;;;;;;;12531091;28;20055;-77
2022/07/21 02:14:15;;;;;;;2.95;2.20;;;;;;;;;;12547749;28;20036;-76
2022/07/21 02:20:17;;;;;;;2.70;2.50;;;;;;;;;;12548287;28;20032;-80
2022/07/21 02:26:18;;;;;;;3.10;2.17;;;;;;;;;;12546352;28;20052;-77
2022/07/21 02:32:20;;;;;;;2.78;2.00;;;;;;;;;;12547193;28;20031;-76
2022/07/21 02:38:22;;;;;;;2.05;1.85;;;;;;;;;;12543987;28;20037;-77
2022/07/21 02:44:24;;;;;;;2.45;2.08;;;;;;;;;;12543507;28;20056;-77
2022/07/21 02:50:28;;;;;;;2.42;1.98;;;;;;;;;;12543302;28;20049;-77
2022/07/21 02:56:29;;;;;;;2.17;1.92;;;;;;;;;;12543233;28;20506;-77
2022/07/21 03:02:31;;;;;;;2.20;2.00;;;;;;;;;;12546069;28;20037;-77
2022/07/21 03:08:33;;;;;;;2.20;2.00;;;;;;;;;;12527116;28;20049;-80
2022/07/21 03:14:35;;;;;;;2.80;1.70;;;;;;;;;;12545884;28;20032;-77
2022/07/21 03:20:37;;;;;;;;;;;;;;;;;;12546536;28;20100;-81
2022/07/21 03:26:38;;;;;;;2.57;1.73;;;;;;;;;;12542515;28;19916;-76
2022/07/21 03:32:40;;;;;;;;;;;;;;;;;;12545504;28;20045;-79
2022/07/21 03:38:41;;;;;;;2.17;1.93;;;;;;;;;;12541555;28;19909;-79
2022/07/21 03:44:43;;;;;;;2.40;2.20;;;;;;;;;;12541276;28;20318;-80
2022/07/21 03:50:45;;;;;;;;;;;;;;;;;;12545932;28;20044;-80
2022/07/21 03:56:46;;;;;;;3.23;2.03;;;;;;;;;;12542088;28;20391;-76
2022/07/21 04:02:48;;;;;;;;;;;;;;;;;;12542760;28;20028;-79
2022/07/21 04:08:50;;;;;;;2.17;1.97;;;;;;;;;;12542117;28;19917;-80
2022/07/21 04:14:51;;;;;;;;;;;;;;;;;;12540716;28;20036;-80
2022/07/21 04:20:53;;;;;;;3.57;2.77;;;;;;;;;;12524912;28;20308;-76
2022/07/21 04:26:54;;;;;;;3.47;2.35;;;;;;;;;;12522966;28;20052;-79
2022/07/21 04:32:56;;;;;;;;;;;;;;;;;;12540946;28;20033;-80
2022/07/21 04:38:57;;;;;;;3.30;2.63;;;;;;;;;;12540194;28;19919;-76
2022/07/21 04:44:59;;;;;;;3.20;2.10;;;;;;;;;;12540084;28;20489;-76
2022/07/21 04:51:01;;;;;;;;;;;;;;;;;;12541208;28;20512;-77
2022/07/21 04:57:04;;;;;;;2.23;2.03;;;;;;;;;;12549618;28;19913;-76
2022/07/21 05:03:05;;;;;;;3.60;2.75;;;;;;;;;;12551111;28;20044;-80
2022/07/21 05:09:07;;;;;;;;;;;;;;;;;;12549831;28;20413;-76
2022/07/21 05:15:11;;;;;;;2.93;2.53;;;;;;;;;;12548675;28;19908;-77
2022/07/21 05:21:12;;;;;;;3.40;3.00;;;;;;;;;;12550804;28;20286;-80
2022/07/21 05:27:14;;;;;;;;;;;;;;;;;;12549458;28;20040;-80
2022/07/21 05:33:16;;;;;;;2.80;2.20;;;;;;;;;;12548502;28;20317;-76
2022/07/21 05:39:17;;;;;;;;;;;;;;;;;;12548102;28;20037;-76
2022/07/21 05:45:19;;;;;;;3.07;2.40;;;;;;;;;;12546553;28;19916;-80
2022/07/21 05:51:20;;;;;;;2.83;2.22;;;;;;;;;;12552107;28;20279;-80
2022/07/21 05:57:22;;;;;;;2.80;2.47;;;;;;;;;;12548729;28;20048;-80
2022/07/21 06:03:24;;;;;;;2.25;2.08;;;;;;;;;;12545939;28;20036;-77
2022/07/21 06:09:26;;;;;;;2.38;2.17;;;;;;;;;;12545954;28;20048;-76
2022/07/21 06:15:27;;;;;;;1.85;1.75;;;;;;;;;;12546820;28;20380;-76
2022/07/21 06:21:29;;;;;;;3.10;2.30;;;;;;;;;;12545702;28;20077;-76
2022/07/21 06:27:31;;;;;;;1.30;1.20;;;;;;;;;;12550192;28;20055;-76
2022/07/21 06:33:33;;;;;;;1.55;1.45;;;;;;;;;;12544708;28;20036;-80
2022/07/21 06:39:39;;;;;;;1.80;1.70;;;;;;;;;;12544673;28;20056;-80
2022/07/21 06:45:41;;;;;;;2.38;1.75;;;;;;;;;;12548528;28;20045;-79
2022/07/21 06:51:42;;;;;;;1.40;1.27;;;;;;;;;;12543095;28;20029;-77
2022/07/21 06:57:44;;;;;;;1.52;1.42;;;;;;;;;;12543115;28;20037;-76
2022/07/21 07:03:46;;;;;;;1.95;1.70;;;;;;;;;;12549759;28;20047;-81
2022/07/21 07:09:48;;;;;;;1.73;1.50;;;;;;;;;;12542231;28;20060;-77
2022/07/21 07:15:50;;;;;;;1.92;1.60;;;;;;;;;;12545783;28;20116;-81
2022/07/21 07:21:52;;;;;;;1.27;1.02;;;;;;;;;;12547248;28;20519;-81
2022/07/21 07:27:55;;;;;;;1.98;1.40;;;;;;;;;;12545816;28;20527;-75
2022/07/21 07:33:57;;;;;;;2.40;0.90;;;;;;;;;;12542173;28;20037;-79
2022/07/21 07:39:59;;;;;;;1.73;1.10;;;;;;;;;;12540992;28;20053;-80
2022/07/21 07:46:01;;;;;;;1.88;1.00;;;;;;;;;;12542263;28;20402;-77
2022/07/21 07:52:04;;;;;;;1.33;1.10;;;;;;;;;;12541093;28;20551;-77
2022/07/21 07:58:07;;;;;;;2.10;1.20;;;;;;;;;;12543678;28;20056;-80
2022/07/21 08:04:09;;;;;;;1.75;0.80;;;;;;;;;;12541517;28;20032;-76
2022/07/21 08:10:14;;;;;;;1.45;1.30;;;;;;;;;;12543512;28;20043;-77
2022/07/21 08:16:16;;;;;;;0.98;0.90;;;;;;;;;;12543400;28;20362;-80
2022/07/21 08:22:18;;;;;;;1.90;0.70;;;;;;;;;;12540349;28;20033;-80
2022/07/21 08:28:20;;;;;;;2.17;1.10;;;;;;;;;;12545830;28;20041;-80
2022/07/21 08:34:21;;;;;;;1.33;1.05;;;;;;;;;;12550863;28;20036;-77
2022/07/21 08:40:24;;;;;;;1.67;0.90;;;;;;;;;;12555718;28;20056;-80
2022/07/21 08:46:26;;;;;;;1.08;0.93;;;;;;;;;;12558790;28;20045;-77
2022/07/21 08:52:27;;;;;;;1.08;0.65;;;;;;;;;;12554573;28;20029;-76
2022/07/21 08:58:29;;;;;;;0.93;0.85;;;;;;;;;;12551512;28;20514;-79
2022/07/21 09:04:32;;;;;;;1.73;0.70;;;;;;;;;;12548278;28;20040;-79
2022/07/21 09:10:35;;;;;;;2.03;1.08;;;;;;;;;;12561194;28;20052;-79
2022/07/21 09:16:44;;;;;;;3.35;0.98;;;;;;;;;;12546908;28;20504;-80
2022/07/21 09:23:01;;;;;;;2.28;0.77;;;;;;;;;;12550930;28;20384;-80
2022/07/21 09:29:10;;;;;;;0.60;0.60;;;;;;;;;;12546956;28;20048;-80
2022/07/21 09:35:13;;;;;;;1.00;0.70;;;;;;;;;;12550153;28;20025;-76
2022/07/21 09:41:16;;;;;;;2.03;0.70;;;;;;;;;;12556156;28;20045;-80
2022/07/21 09:47:19;;;;;;;1.13;0.70;;;;;;;;;;12545940;28;20037;-79
2022/07/21 09:53:21;;;;;;;1.55;0.90;;;;;;;;;;12548388;28;20041;-76
2022/07/21 09:59:23;;;;;;;1.10;0.98;;;;;;;;;;12545598;28;20029;-80
2022/07/21 10:05:41;;;;;;;1.50;0.80;;;;;;;;;;12534581;28;20048;-76
2022/07/21 10:11:51;;;;;;;0.90;0.85;;;;;;;;;;12547382;28;20195;-77
2022/07/21 10:17:54;;;;;;;1.30;1.20;;;;;;;;;;12546139;28;20032;-76
2022/07/21 10:23:56;;;;;;;0.90;0.88;;;;;;;;;;12533859;28;20100;-76
2022/07/21 10:30:03;;;;;;;1.02;0.70;;;;;;;;;;12549533;28;20037;-79
2022/07/21 10:36:05;;;;;;;0.95;0.80;;;;;;;;;;12544241;28;20040;-77
2022/07/21 10:42:16;;;;;;;0.80;0.80;;;;;;;;;;12527683;28;20520;-75
2022/07/21 10:48:45;;;;;;;0.80;0.80;;;;;;;;;;12546352;28;20072;-80
2022/07/21 10:55:07;;;;;;;1.55;1.45;;;;;;;;;;12542464;28;20043;-80
2022/07/21 11:01:14;;;;;;;1.40;1.30;;;;;;;;;;12543293;28;20025;-76
2022/07/21 11:07:16;;;;;;;0.93;0.93;;;;;;;;;;12559148;28;20543;-76
2022/07/21 11:13:19;;;;;;;2.10;1.58;;;;;;;;;;12547021;28;20044;-77
2022/07/21 11:19:32;;;;;;;1.90;1.20;;;;;;;;;;12546456;28;20060;-77
2022/07/21 11:25:36;;;;;;;2.38;1.30;;;;;;;;;;12544569;28;20646;-76
2022/07/21 11:31:48;;;;;;;1.80;1.20;;;;;;;;;;12544863;28;20044;-76
2022/07/21 11:37:50;;;;;;;1.60;1.50;;;;;;;;;;12544179;28;20040;-76
2022/07/21 11:43:52;;;;;;;2.95;1.80;;;;;;;;;;12543639;28;20412;-80
2022/07/21 11:49:56;;;;;;;2.55;1.60;;;;;;;;;;12545678;28;20408;-80
2022/07/21 11:55:58;;;;;;;2.78;2.00;;;;;;;;;;12545693;28;20028;-77
2022/07/21 12:02:01;;;;;;;1.95;1.70;;;;;;;;;;12544968;28;20036;-80
2022/07/21 12:08:03;;;;;;;1.70;1.38;;;;;;;;;;12544165;28;20048;-80
2022/07/21 12:14:05;;;;;;;2.28;1.65;;;;;;;;;;12548474;28;20045;-77
2022/07/21 12:20:08;;;;;;;2.17;1.60;;;;;;;;;;12546533;28;20131;-76
2022/07/21 12:26:21;;;;;;;1.73;1.63;;;;;;;;;;12546731;28;20539;-76
2022/07/21 12:32:39;;;;;;;1.30;1.20;;;;;;;;;;12547137;28;20040;-80
2022/07/21 12:38:46;;;;;;;3.10;2.05;;;;;;;;;;12527928;28;20036;-77
2022/07/21 12:44:47;;;;;;;2.92;1.80;;;;;;;;;;12545028;28;20049;-80
2022/07/21 12:51:03;;;;;;;1.95;1.77;;;;;;;;;;12542181;28;20052;-80
2022/07/21 12:57:05;;;;;;;2.30;1.80;;;;;;;;;;12547201;28;20041;-76
2022/07/21 13:03:07;;;;;;;1.73;1.63;;;;;;;;;;12548568;28;20029;-80
2022/07/21 13:09:08;;;;;;;2.08;1.88;;;;;;;;;;12542111;28;20037;-80
2022/07/21 13:15:10;;;;;;;2.65;1.65;;;;;;;;;;12549156;28;20487;-77
2022/07/21 13:21:12;;;;;;;2.13;2.03;;;;;;;;;;12552459;28;20025;-79
2022/07/21 13:27:14;;;;;;;3.85;2.17;;;;;;;;;;12550710;28;20045;-80
2022/07/21 13:33:16;;;;;;;1.98;1.80;;;;;;;;;;12552348;28;20033;-80
2022/07/21 13:39:19;;;;;;;2.85;1.70;;;;;;;;;;12550442;28;20045;-77
2022/07/21 13:45:21;;;;;;;2.28;2.08;;;;;;;;;;12549902;28;20037;-80
2022/07/21 13:51:23;;;;;;;2.83;2.10;;;;;;;;;;12551686;28;20036;-76
2022/07/21 13:57:25;;;;;;;1.60;1.50;;;;;;;;;;12550957;28;20037;-80
2022/07/21 14:03:26;;;;;;;3.03;2.30;;;;;;;;;;12549522;28;20040;-77
2022/07/21 14:09:28;;;;;;;2.20;2.10;;;;;;;;;;12550876;28;20051;-80
2022/07/21 14:15:30;;;;;;;1.60;1.50;;;;;;;;;;12548905;28;20037;-77
2022/07/21 14:21:32;;;;;;;1.85;1.75;;;;;;;;;;12550408;28;20037;-80
2022/07/21 14:27:34;;;;;;;1.95;1.75;;;;;;;;;;12549483;28;20056;-77
2022/07/21 14:33:36;;;;;;;1.70;1.58;;;;;;;;;;12548066;28;20044;-77
2022/07/21 14:39:37;;;;;;;1.63;1.52;;;;;;;;;;12548575;28;20405;-77
2022/07/21 14:45:40;;;;;;;1.58;1.48;;;;;;;;;;12549518;28;20041;-79
2022/07/21 14:51:41;;;;;;;2.40;2.20;;;;;;;;;;12548563;28;20045;-77
2022/07/21 14:57:43;;;;;;;3.63;1.85;;;;;;;;;;12547173;28;20037;-79
2022/07/21 15:03:45;;;;;;;2.47;1.88;;;;;;;;;;12530067;28;20033;-80
2022/07/21 15:09:47;;;;;;;2.42;2.22;;;;;;;;;;12546998;28;20052;-80
2022/07/21 15:15:48;;;;;;;2.40;1.55;;;;;;;;;;12547088;28;20029;-80
2022/07/21 15:21:50;;;;;;;1.60;1.50;;;;;;;;;;12547106;28;20389;-77
2022/07/21 15:27:52;;;;;;;2.33;1.70;;;;;;;;;;12547136;28;20033;-80
2022/07/21 15:33:54;;;;;;;1.50;1.40;;;;;;;;;;12546982;28;20032;-77
2022/07/21 15:39:56;;;;;;;1.60;1.40;;;;;;;;;;12545583;28;20361;-79
2022/07/21 15:45:57;;;;;;;1.70;1.60;;;;;;;;;;12545181;28;20491;-76
2022/07/21 15:52:01;;;;;;;2.80;1.52;;;;;;;;;;12545919;28;20029;-78
2022/07/21 15:58:03;;;;;;;1.40;1.30;;;;;;;;;;12545425;28;20037;-77
2022/07/21 16:04:04;;;;;;;2.10;1.48;;;;;;;;;;12528339;28;20037;-77
2022/07/21 16:10:07;;;;;;;1.40;1.30;;;;;;;;;;12544206;28;20060;-77
2022/07/21 16:16:09;;;;;;;1.60;1.50;;;;;;;;;;12545571;28;20503;-80
2022/07/21 16:22:10;;;;;;;1.60;1.50;;;;;;;;;;12543841;28;20504;-79
2022/07/21 16:28:12;;;;;;;2.47;1.80;;;;;;;;;;12544323;28;20048;-75
2022/07/21 16:34:14;;;;;;;2.17;2.03;;;;;;;;;;12544771;28;20047;-78
2022/07/21 16:40:19;;;;;;;2.22;2.13;;;;;;;;;;12544685;28;20049;-79
2022/07/21 16:46:21;;;;;;;2.13;1.98;;;;;;;;;;12544240;28;20455;-76
2022/07/21 16:52:22;;;;;;;2.50;2.30;;;;;;;;;;12553797;28;20481;-80
2022/07/21 16:58:24;;;;;;;2.70;2.50;;;;;;;;;;12536971;28;20037;-76
2022/07/21 17:04:26;;;;;;;2.67;2.47;;;;;;;;;;12554859;28;20045;-80
2022/07/21 17:10:27;;;;;;;3.05;2.75;;;;;;;;;;12552978;28;20041;-77
2022/07/21 17:16:29;;;;;;;4.40;3.20;;;;;;;;;;12552510;28;20042;-79
2022/07/21 17:22:31;;;;;;;3.50;3.20;;;;;;;;;;12551864;28;20052;-77
2022/07/21 17:28:33;;;;;;;3.95;3.65;;;;;;;;;;12551448;28;20041;-79
2022/07/21 17:34:35;;;;;;;3.88;3.53;;;;;;;;;;12551803;28;20029;-76
2022/07/21 17:40:37;;;;;;;3.03;2.83;;;;;;;;;;12551374;28;20053;-79
2022/07/21 17:46:39;;;;;;;3.25;3.03;;;;;;;;;;12551305;28;20275;-77
2022/07/21 17:52:41;;;;;;;3.17;2.90;;;;;;;;;;12550220;28;20033;-80
2022/07/21 17:58:42;;;;;;;3.45;3.13;;;;;;;;;;12553407;28;20037;-76
2022/07/21 18:04:44;;;;;;;3.38;2.78;;;;;;;;;;12532368;28;20048;-76
2022/07/21 18:10:46;;;;;;;3.25;3.00;;;;;;;;;;12553186;28;20045;-80
2022/07/21 18:16:48;;;;;;;3.55;3.25;;;;;;;;;;12549046;28;20039;-77
2022/07/21 18:22:49;;;;;;;2.80;2.60;;;;;;;;;;12553644;28;20067;-80
2022/07/21 18:28:51;;;;;;;2.72;2.53;;;;;;;;;;12549657;28;20060;-76
2022/07/21 18:34:53;;;;;;;2.70;2.50;;;;;;;;;;12553008;28;20029;-76
2022/07/21 18:40:55;;;;;;;2.58;2.35;;;;;;;;;;12532464;28;20052;-80
2022/07/21 18:46:56;;;;;;;2.15;2.00;;;;;;;;;;12552209;28;20041;-77
2022/07/21 18:52:58;;;;;;;2.03;1.90;;;;;;;;;;12548398;28;20044;-76
2022/07/21 18:59:00;;;;;;;2.03;1.92;;;;;;;;;;12548057;28;20060;-80
2022/07/21 19:05:01;;;;;;;2.10;1.95;;;;;;;;;;12547865;28;20036;-77
2022/07/21 19:11:04;;;;;;;1.83;1.73;;;;;;;;;;12547601;28;20057;-80
2022/07/21 19:17:06;;;;;;;1.80;1.70;;;;;;;;;;12546336;28;20033;-77
2022/07/21 19:23:08;;;;;;;2.10;1.90;;;;;;;;;;12546075;28;20032;-80
2022/07/21 19:29:10;;;;;;;1.67;1.50;;;;;;;;;;12545760;28;20543;-77
2022/07/21 19:35:12;;;;;;;1.95;1.65;;;;;;;;;;12546439;28;20393;-79
2022/07/21 19:41:14;;;;;;;1.80;1.70;;;;;;;;;;12545768;28;20527;-80
2022/07/21 19:47:15;;;;;;;2.60;1.85;;;;;;;;;;12545718;28;20051;-77
2022/07/21 19:53:17;;;;;;;1.95;1.75;;;;;;;;;;12546681;28;20036;-81
2022/07/21 19:59:19;;;;;;;2.00;1.80;;;;;;;;;;12545856;28;20032;-76
2022/07/21 20:05:21;;;;;;;2.35;2.15;;;;;;;;;;12545621;28;20052;-76
2022/07/21 20:11:23;;;;;;;2.10;1.77;;;;;;;;;;12547993;28;20048;-76
2022/07/21 20:17:26;;;;;;;2.42;2.00;;;;;;;;;;12544320;28;20045;-76
2022/07/21 20:23:28;;;;;;;2.38;2.17;;;;;;;;;;12548104;28;20035;-80
2022/07/21 20:29:30;;;;;;;5.80;2.70;;;;;;;;;;12553685;28;20060;-79
2022/07/21 20:35:32;;;;;;;2.70;2.30;;;;;;;;;;12565313;28;20060;-79
2022/07/21 20:41:34;;;;;;;2.90;2.40;;;;;;;;;;12555003;28;20049;-79
2022/07/21 20:47:35;;;;;;;3.00;2.53;;;;;;;;;;12554145;28;20056;-77
2022/07/21 20:53:37;;;;;;;2.40;2.20;;;;;;;;;;12554140;28;20040;-80
2022/07/21 20:59:39;;;;;;;2.65;2.45;;;;;;;;;;12552340;28;20029;-80
2022/07/21 21:05:41;;;;;;;2.95;2.70;;;;;;;;;;12553628;28;20029;-77
2022/07/21 21:11:43;;;;;;;3.20;2.90;;;;;;;;;;12538870;28;20049;-80
2022/07/21 21:17:44;;;;;;;2.70;2.50;;;;;;;;;;12552326;28;20033;-77
2022/07/21 21:23:47;;;;;;;2.58;2.38;;;;;;;;;;12552978;28;20033;-77
2022/07/21 21:29:48;;;;;;;4.07;2.63;;;;;;;;;;12552687;28;20036;-76
2022/07/21 21:35:50;;;;;;;2.85;2.63;;;;;;;;;;12551356;28;20036;-76
2022/07/21 21:41:52;;;;;;;4.43;2.55;;;;;;;;;;12554369;28;20056;-77
2022/07/21 21:47:54;;;;;;;2.50;2.30;;;;;;;;;;12552000;28;20500;-76
2022/07/21 21:53:56;;;;;;;2.75;2.33;;;;;;;;;;12551474;28;20028;-75
2022/07/21 21:59:59;;;;;;;2.72;2.20;;;;;;;;;;12551795;28;20388;-79
2022/07/21 22:06:00;;;;;;;3.33;2.83;;;;;;;;;;12551840;28;20507;-80
2022/07/21 22:12:02;;;;;;;2.63;2.42;;;;;;;;;;12551761;28;20401;-76
2022/07/21 22:18:04;;;;;;;2.70;2.50;;;;;;;;;;12555162;28;20045;-76
2022/07/21 22:24:06;;;;;;;3.83;2.75;;;;;;;;;;12548761;28;20041;-76
2022/07/21 22:30:09;;;;;;;2.72;2.40;;;;;;;;;;12549023;28;20037;-76
2022/07/21 22:36:11;;;;;;;3.10;2.80;;;;;;;;;;12548443;28;20523;-80
2022/07/21 22:42:12;;;;;;;2.70;2.20;;;;;;;;;;12549082;28;20056;-76
2022/07/21 22:48:14;;;;;;;2.83;2.28;;;;;;;;;;12556160;28;20045;-79
2022/07/21 22:54:16;;;;;;;2.92;1.98;;;;;;;;;;12548410;28;20384;-79
2022/07/21 23:00:19;;;;;;;2.67;2.47;;;;;;;;;;12546805;28;20025;-80
2022/07/21 23:06:21;;;;;;;2.70;2.50;;;;;;;;;;12530917;28;20143;-77
2022/07/21 23:12:23;;;;;;;2.38;2.17;;;;;;;;;;12549746;28;20071;-76
2022/07/21 23:18:24;;;;;;;3.10;2.65;;;;;;;;;;12553842;28;20029;-76
2022/07/21 23:24:26;;;;;;;1.85;1.75;;;;;;;;;;12546161;28;20041;-77
2022/07/21 23:30:28;;;;;;;2.63;2.28;;;;;;;;;;12546864;28;20040;-76
2022/07/21 23:36:30;;;;;;;2.95;2.50;;;;;;;;;;12546051;28;20025;-76
2022/07/21 23:42:32;;;;;;;3.17;2.72;;;;;;;;;;12547022;28;20523;-77
2022/07/21 23:48:34;;;;;;;3.95;2.83;;;;;;;;;;12550233;28;20048;-76
2022/07/21 23:54:35;;;;;;;4.30;2.92;;;;;;;;;;12544976;28;20029;-80
